createdAt,value
2018-10-03T00:00:17.954Z,8.56
2018-10-03T00:01:17.589Z,8.56
2018-10-03T00:02:17.641Z,8.53
2018-10-03T00:03:17.632Z,8.6
2018-10-03T00:04:17.572Z,8.55
2018-10-03T00:05:17.646Z,8.58
2018-10-03T00:06:17.710Z,8.59
2018-10-03T00:07:17.575Z,8.61
2018-10-03T00:08:17.681Z,8.63
2018-10-03T00:09:17.589Z,8.62
2018-10-03T00:10:17.676Z,8.61
2018-10-03T00:11:17.715Z,8.61
2018-10-03T00:12:17.638Z,8.61
2018-10-03T00:13:17.685Z,8.6
2018-10-03T00:14:17.589Z,8.57
2018-10-03T00:15:17.653Z,8.61
2018-10-03T00:16:17.682Z,8.62
2018-10-03T00:17:17.720Z,8.6
2018-10-03T00:18:17.628Z,8.63
2018-10-03T00:19:17.602Z,8.64
2018-10-03T00:20:17.639Z,8.58
2018-10-03T00:21:17.555Z,8.61
2018-10-03T00:22:17.592Z,8.59
2018-10-03T00:24:17.623Z,8.58
2018-10-03T00:25:17.632Z,8.59
2018-10-03T00:26:17.814Z,8.59
2018-10-03T00:27:17.637Z,8.61
2018-10-03T00:28:17.651Z,8.62
2018-10-03T00:29:17.673Z,8.59
2018-10-03T00:30:17.615Z,8.61
2018-10-03T00:31:17.558Z,8.61
2018-10-03T00:32:17.579Z,8.59
2018-10-03T00:33:17.970Z,8.6
2018-10-03T00:34:17.609Z,8.55
2018-10-03T00:35:17.583Z,8.57
2018-10-03T00:36:17.590Z,8.59
2018-10-03T00:37:17.595Z,8.56
2018-10-03T00:38:17.609Z,8.56
2018-10-03T00:39:17.661Z,8.55
2018-10-03T00:40:17.569Z,8.56
2018-10-03T00:41:17.584Z,8.55
2018-10-03T00:42:17.515Z,8.54
2018-10-03T00:43:17.534Z,8.5
2018-10-03T00:44:17.598Z,8.5
2018-10-03T00:45:17.534Z,8.51
2018-10-03T00:46:17.579Z,8.51
2018-10-03T00:47:17.530Z,8.47
2018-10-03T00:48:17.554Z,8.48
2018-10-03T00:49:17.546Z,8.53
2018-10-03T00:50:17.557Z,8.47
2018-10-03T00:51:17.551Z,8.49
2018-10-03T00:52:17.521Z,8.5
2018-10-03T00:53:17.506Z,8.48
2018-10-03T00:54:17.521Z,8.49
2018-10-03T00:55:17.484Z,8.46
2018-10-03T00:56:17.493Z,8.51
2018-10-03T00:57:17.533Z,8.5
2018-10-03T00:58:17.529Z,8.49
2018-10-03T00:59:17.506Z,8.48
2018-10-03T01:00:17.538Z,8.51
2018-10-03T01:01:17.549Z,8.48
2018-10-03T01:02:17.521Z,8.47
2018-10-03T01:03:17.608Z,8.52
2018-10-03T01:04:17.713Z,8.54
2018-10-03T01:05:17.828Z,8.52
2018-10-03T01:06:18.128Z,8.5
2018-10-03T01:07:17.513Z,8.54
2018-10-03T01:08:17.812Z,8.51
2018-10-03T01:09:17.580Z,8.53
2018-10-03T01:10:17.471Z,8.54
2018-10-03T01:11:17.550Z,8.54
2018-10-03T01:12:17.499Z,8.58
2018-10-03T01:13:17.538Z,8.58
2018-10-03T01:14:17.685Z,8.56
2018-10-03T01:15:17.506Z,8.56
2018-10-03T01:16:17.597Z,8.58
2018-10-03T01:17:17.513Z,8.55
2018-10-03T01:18:17.569Z,8.62
2018-10-03T01:19:17.542Z,8.6
2018-10-03T01:20:17.563Z,8.61
2018-10-03T01:21:17.619Z,8.61
2018-10-03T01:22:17.544Z,8.58
2018-10-03T01:23:17.650Z,8.61
2018-10-03T01:24:17.644Z,8.6
2018-10-03T01:25:17.859Z,8.59
2018-10-03T01:26:17.504Z,8.62
2018-10-03T01:27:17.536Z,8.61
2018-10-03T01:28:17.654Z,8.59
2018-10-03T01:29:18.306Z,8.6
2018-10-03T01:30:17.601Z,8.58
2018-10-03T01:31:17.490Z,8.59
2018-10-03T01:32:17.469Z,8.61
2018-10-03T01:33:17.504Z,8.63
2018-10-03T01:34:17.552Z,8.61
2018-10-03T01:35:17.594Z,8.61
2018-10-03T01:36:17.488Z,8.6
2018-10-03T01:37:17.467Z,8.6
2018-10-03T01:38:17.854Z,8.61
2018-10-03T01:39:17.487Z,8.64
2018-10-03T01:40:17.544Z,8.63
2018-10-03T01:41:17.500Z,8.64
2018-10-03T01:42:17.495Z,8.64
2018-10-03T01:43:17.597Z,8.64
2018-10-03T01:44:17.469Z,8.66
2018-10-03T01:45:17.500Z,8.68
2018-10-03T01:46:17.660Z,8.64
2018-10-03T01:47:17.568Z,8.67
2018-10-03T01:48:17.438Z,8.66
2018-10-03T01:49:17.583Z,8.69
2018-10-03T01:50:17.532Z,8.69
2018-10-03T01:51:17.448Z,8.69
2018-10-03T01:52:17.515Z,8.69
2018-10-03T01:53:17.555Z,8.67
2018-10-03T01:54:17.552Z,8.66
2018-10-03T01:55:17.423Z,8.65
2018-10-03T01:56:17.741Z,8.65
2018-10-03T01:57:17.483Z,8.71
2018-10-03T01:58:17.584Z,8.69
2018-10-03T01:59:17.495Z,8.69
2018-10-03T02:00:17.500Z,8.7
2018-10-03T02:01:17.559Z,8.68
2018-10-03T02:02:17.453Z,8.67
2018-10-03T02:03:17.716Z,8.7
2018-10-03T02:04:17.404Z,8.69
2018-10-03T02:05:17.414Z,8.72
2018-10-03T02:06:17.429Z,8.7
2018-10-03T02:07:17.416Z,8.73
2018-10-03T02:08:17.413Z,8.68
2018-10-03T02:09:17.596Z,8.74
2018-10-03T02:10:17.531Z,8.74
2018-10-03T02:11:17.441Z,8.73
2018-10-03T02:12:17.477Z,8.73
2018-10-03T02:13:17.431Z,8.79
2018-10-03T02:14:17.489Z,8.8
2018-10-03T02:15:17.713Z,8.82
2018-10-03T02:16:17.405Z,8.81
2018-10-03T02:17:17.400Z,8.82
2018-10-03T02:18:17.452Z,8.8
2018-10-03T02:19:17.796Z,8.8
2018-10-03T02:20:17.418Z,8.83
2018-10-03T02:21:17.387Z,8.8
2018-10-03T02:22:17.411Z,8.8
2018-10-03T02:23:17.399Z,8.85
2018-10-03T02:24:17.378Z,8.89
2018-10-03T02:25:17.395Z,8.85
2018-10-03T02:26:17.473Z,8.85
2018-10-03T02:27:17.439Z,8.87
2018-10-03T02:28:17.413Z,8.89
2018-10-03T02:29:17.389Z,8.88
2018-10-03T02:30:17.401Z,8.91
2018-10-03T02:31:17.673Z,8.87
2018-10-03T02:32:17.405Z,8.85
2018-10-03T02:33:17.552Z,8.88
2018-10-03T02:34:17.479Z,8.84
2018-10-03T02:35:17.425Z,8.84
2018-10-03T02:36:18.224Z,8.83
2018-10-03T02:37:17.785Z,8.84
2018-10-03T02:38:17.457Z,8.83
2018-10-03T02:39:17.467Z,8.82
2018-10-03T02:40:17.636Z,8.81
2018-10-03T02:41:17.518Z,8.82
2018-10-03T02:42:17.658Z,8.8
2018-10-03T02:43:17.560Z,8.79
2018-10-03T02:44:17.709Z,8.77
2018-10-03T02:45:17.532Z,8.78
2018-10-03T02:46:17.623Z,8.78
2018-10-03T02:47:17.585Z,8.75
2018-10-03T02:48:17.456Z,8.73
2018-10-03T02:49:17.395Z,8.73
2018-10-03T02:50:17.471Z,8.71
2018-10-03T02:51:17.418Z,8.72
2018-10-03T02:52:17.594Z,8.72
2018-10-03T02:53:17.424Z,8.7
2018-10-03T02:54:17.524Z,8.7
2018-10-03T02:55:17.377Z,8.72
2018-10-03T02:56:17.441Z,8.69
2018-10-03T02:57:17.744Z,8.73
2018-10-03T02:58:17.790Z,8.71
2018-10-03T02:59:17.349Z,8.74
2018-10-03T03:00:17.547Z,8.71
2018-10-03T03:01:17.429Z,8.72
2018-10-03T03:02:17.566Z,8.75
2018-10-03T03:03:17.368Z,8.74
2018-10-03T03:04:17.529Z,8.75
2018-10-03T03:05:17.431Z,8.74
2018-10-03T03:06:17.413Z,8.75
2018-10-03T03:07:17.741Z,8.74
2018-10-03T03:08:17.378Z,8.76
2018-10-03T03:09:17.885Z,8.77
2018-10-03T03:10:17.402Z,8.81
2018-10-03T03:11:17.336Z,8.8
2018-10-03T03:12:17.352Z,8.79
2018-10-03T03:13:17.517Z,8.79
2018-10-03T03:14:17.319Z,8.86
2018-10-03T03:15:17.346Z,8.82
2018-10-03T03:16:17.584Z,8.88
2018-10-03T03:17:17.623Z,8.83
2018-10-03T03:18:17.474Z,8.87
2018-10-03T03:19:17.580Z,8.9
2018-10-03T03:20:17.359Z,8.9
2018-10-03T03:21:17.309Z,8.92
2018-10-03T03:22:17.503Z,8.95
2018-10-03T03:23:17.331Z,8.98
2018-10-03T03:24:17.378Z,8.97
2018-10-03T03:25:17.289Z,8.98
2018-10-03T03:26:17.637Z,9.03
2018-10-03T03:27:17.366Z,9
2018-10-03T03:28:17.343Z,8.99
2018-10-03T03:29:17.397Z,8.98
2018-10-03T03:30:17.479Z,9.03
2018-10-03T03:31:17.593Z,9.02
2018-10-03T03:32:17.469Z,9.05
2018-10-03T03:33:17.325Z,9.06
2018-10-03T03:34:17.534Z,9.03
2018-10-03T03:35:17.651Z,9.05
2018-10-03T03:36:17.320Z,9.08
2018-10-03T03:37:17.364Z,9.11
2018-10-03T03:38:17.358Z,9.16
2018-10-03T03:39:17.308Z,9.16
2018-10-03T03:40:17.314Z,9.18
2018-10-03T03:41:17.313Z,9.13
2018-10-03T03:42:17.494Z,9.14
2018-10-03T03:43:17.337Z,9.16
2018-10-03T03:44:17.306Z,9.2
2018-10-03T03:45:17.280Z,9.21
2018-10-03T03:46:17.312Z,9.21
2018-10-03T03:47:17.318Z,9.19
2018-10-03T03:48:17.323Z,9.23
2018-10-03T03:49:17.299Z,9.2
2018-10-03T03:50:17.286Z,9.23
2018-10-03T03:51:17.293Z,9.21
2018-10-03T03:52:17.265Z,9.23
2018-10-03T03:53:17.347Z,9.27
2018-10-03T03:54:17.314Z,9.23
2018-10-03T03:55:17.349Z,9.21
2018-10-03T03:56:17.291Z,9.22
2018-10-03T03:57:17.296Z,9.24
2018-10-03T03:58:17.485Z,9.21
2018-10-03T03:59:17.281Z,9.24
2018-10-03T04:00:17.328Z,9.22
2018-10-03T04:01:17.314Z,9.23
2018-10-03T04:02:17.327Z,9.2
2018-10-03T04:03:17.293Z,9.21
2018-10-03T04:04:17.516Z,9.19
2018-10-03T04:05:17.278Z,9.21
2018-10-03T04:06:17.366Z,9.21
2018-10-03T04:07:17.271Z,9.2
2018-10-03T04:08:17.301Z,9.17
2018-10-03T04:09:17.420Z,9.16
2018-10-03T04:10:17.307Z,9.17
2018-10-03T04:11:17.365Z,9.2
2018-10-03T04:12:17.285Z,9.23
2018-10-03T04:13:17.345Z,9.17
2018-10-03T04:14:17.389Z,9.18
2018-10-03T04:15:17.313Z,9.18
2018-10-03T04:16:17.373Z,9.18
2018-10-03T04:17:17.324Z,9.2
2018-10-03T04:18:17.227Z,9.18
2018-10-03T04:19:17.308Z,9.19
2018-10-03T04:20:17.498Z,9.17
2018-10-03T04:21:17.229Z,9.18
2018-10-03T04:22:17.256Z,9.2
2018-10-03T04:23:17.217Z,9.19
2018-10-03T04:24:17.424Z,9.2
2018-10-03T04:25:17.521Z,9.22
2018-10-03T04:26:17.254Z,9.21
2018-10-03T04:27:17.599Z,9.2
2018-10-03T04:28:17.225Z,9.19
2018-10-03T04:29:17.234Z,9.24
2018-10-03T04:30:17.285Z,9.2
2018-10-03T04:31:17.292Z,9.21
2018-10-03T04:32:17.685Z,9.23
2018-10-03T04:33:17.218Z,9.2
2018-10-03T04:34:17.577Z,9.18
2018-10-03T04:35:17.216Z,9.19
2018-10-03T04:36:17.559Z,9.2
2018-10-03T04:37:17.205Z,9.21
2018-10-03T04:38:17.528Z,9.18
2018-10-03T04:39:17.229Z,9.2
2018-10-03T04:40:17.192Z,9.2
2018-10-03T04:41:17.287Z,9.17
2018-10-03T04:42:17.935Z,9.19
2018-10-03T04:43:17.447Z,9.17
2018-10-03T04:44:17.217Z,9.17
2018-10-03T04:45:17.526Z,9.15
2018-10-03T04:46:17.476Z,9.15
2018-10-03T04:47:17.486Z,9.13
2018-10-03T04:48:17.180Z,9.09
2018-10-03T04:49:17.398Z,9.06
2018-10-03T04:50:17.237Z,9.03
2018-10-03T04:51:17.399Z,9.06
2018-10-03T04:52:17.194Z,9.01
2018-10-03T04:53:17.175Z,8.98
2018-10-03T04:54:17.269Z,8.92
2018-10-03T04:55:17.251Z,8.87
2018-10-03T04:56:17.314Z,8.86
2018-10-03T04:57:17.372Z,8.84
2018-10-03T04:58:17.175Z,8.74
2018-10-03T04:59:17.220Z,8.72
2018-10-03T05:00:17.335Z,8.7
2018-10-03T05:01:17.364Z,8.68
2018-10-03T05:02:17.168Z,8.63
2018-10-03T05:03:17.317Z,8.65
2018-10-03T05:04:17.316Z,8.6
2018-10-03T05:05:17.153Z,8.58
2018-10-03T05:06:17.215Z,8.6
2018-10-03T05:07:17.151Z,8.59
2018-10-03T05:08:17.464Z,8.6
2018-10-03T05:09:17.171Z,8.61
2018-10-03T05:10:17.143Z,8.6
2018-10-03T05:11:17.681Z,8.61
2018-10-03T05:12:17.186Z,8.63
2018-10-03T05:13:17.166Z,8.62
2018-10-03T05:14:17.419Z,8.66
2018-10-03T05:15:17.142Z,8.62
2018-10-03T05:16:17.178Z,8.66
2018-10-03T05:17:17.150Z,8.64
2018-10-03T05:18:17.163Z,8.67
2018-10-03T05:19:17.145Z,8.66
2018-10-03T05:20:17.142Z,8.66
2018-10-03T05:21:17.135Z,8.68
2018-10-03T05:22:17.139Z,8.72
2018-10-03T05:23:17.132Z,8.71
2018-10-03T05:24:17.129Z,8.76
2018-10-03T05:25:17.128Z,8.77
2018-10-03T05:26:17.145Z,8.75
2018-10-03T05:27:17.488Z,8.78
2018-10-03T05:28:17.330Z,8.77
2018-10-03T05:29:17.177Z,8.79
2018-10-03T05:30:17.209Z,8.78
2018-10-03T05:31:17.406Z,8.77
2018-10-03T05:32:17.589Z,8.81
2018-10-03T05:33:17.611Z,8.81
2018-10-03T05:34:17.382Z,8.85
2018-10-03T05:35:17.485Z,8.85
2018-10-03T05:36:17.138Z,8.82
2018-10-03T05:37:17.147Z,8.87
2018-10-03T05:38:17.128Z,8.85
2018-10-03T05:39:17.267Z,8.89
2018-10-03T05:40:17.120Z,8.88
2018-10-03T05:41:17.262Z,8.88
2018-10-03T05:42:17.186Z,8.9
2018-10-03T05:43:17.344Z,8.92
2018-10-03T05:44:17.121Z,8.9
2018-10-03T05:45:17.107Z,8.94
2018-10-03T05:46:17.133Z,8.93
2018-10-03T05:47:17.120Z,8.95
2018-10-03T05:48:17.504Z,8.96
2018-10-03T05:49:17.303Z,9
2018-10-03T05:50:17.142Z,8.98
2018-10-03T05:51:17.387Z,9
2018-10-03T05:52:17.226Z,9
2018-10-03T05:53:17.588Z,9.06
2018-10-03T05:54:17.502Z,9.12
2018-10-03T05:55:17.082Z,9.14
2018-10-03T05:56:17.130Z,9.2
2018-10-03T05:57:17.240Z,9.34
2018-10-03T05:58:17.130Z,9.41
2018-10-03T05:59:17.393Z,9.5
2018-10-03T06:00:17.372Z,9.53
2018-10-03T06:01:17.618Z,9.57
2018-10-03T06:02:17.244Z,9.63
2018-10-03T06:03:17.295Z,9.66
2018-10-03T06:04:17.216Z,9.61
2018-10-03T06:05:17.408Z,9.73
2018-10-03T06:06:17.498Z,9.69
2018-10-03T06:07:17.309Z,9.75
2018-10-03T06:08:17.184Z,9.76
2018-10-03T06:09:17.206Z,9.77
2018-10-03T06:10:17.086Z,9.72
2018-10-03T06:11:17.083Z,9.76
2018-10-03T06:12:17.934Z,9.8
2018-10-03T06:13:17.090Z,9.78
2018-10-03T06:14:17.556Z,9.79
2018-10-03T06:15:17.246Z,9.82
2018-10-03T06:16:17.271Z,9.88
2018-10-03T06:17:17.139Z,9.88
2018-10-03T06:18:17.238Z,9.87
2018-10-03T06:19:17.203Z,9.85
2018-10-03T06:20:17.121Z,9.89
2018-10-03T06:21:17.269Z,9.86
2018-10-03T06:22:17.186Z,9.85
2018-10-03T06:23:17.148Z,9.85
2018-10-03T06:24:17.176Z,9.88
2018-10-03T06:25:17.136Z,9.85
2018-10-03T06:26:17.184Z,9.87
2018-10-03T06:27:17.073Z,9.88
2018-10-03T06:28:17.676Z,9.91
2018-10-03T06:29:17.206Z,9.86
2018-10-03T06:30:17.076Z,9.87
2018-10-03T06:31:17.272Z,9.89
2018-10-03T06:32:17.186Z,9.91
2018-10-03T06:33:17.292Z,9.93
2018-10-03T06:34:17.113Z,9.84
2018-10-03T06:35:17.335Z,9.93
2018-10-03T06:36:18.201Z,9.92
2018-10-03T06:37:17.057Z,9.91
2018-10-03T06:38:17.104Z,9.88
2018-10-03T06:39:17.391Z,9.93
2018-10-03T06:40:17.240Z,9.93
2018-10-03T06:41:17.087Z,9.93
2018-10-03T06:42:17.138Z,9.92
2018-10-03T06:43:17.066Z,9.94
2018-10-03T06:44:17.270Z,9.91
2018-10-03T06:45:17.277Z,9.97
2018-10-03T06:46:17.046Z,9.92
2018-10-03T06:47:17.093Z,9.93
2018-10-03T06:48:17.090Z,9.96
2018-10-03T06:49:17.047Z,9.99
2018-10-03T06:50:17.039Z,9.98
2018-10-03T06:51:17.063Z,9.98
2018-10-03T06:52:17.237Z,9.98
2018-10-03T06:54:17.148Z,9.95
2018-10-03T06:55:17.265Z,9.93
2018-10-03T06:56:17.394Z,9.92
2018-10-03T06:57:16.994Z,9.92
2018-10-03T06:58:17.190Z,9.9
2018-10-03T06:59:17.326Z,9.94
2018-10-03T07:00:17.157Z,9.91
2018-10-03T07:01:17.145Z,9.97
2018-10-03T07:02:17.143Z,9.95
2018-10-03T07:03:16.959Z,9.94
2018-10-03T07:04:17.227Z,9.94
2018-10-03T07:05:17.059Z,9.92
2018-10-03T07:06:17.142Z,9.89
2018-10-03T07:07:17.153Z,9.88
2018-10-03T07:08:17.304Z,9.89
2018-10-03T07:09:17.024Z,9.91
2018-10-03T07:10:17.226Z,9.88
2018-10-03T07:11:17.248Z,9.86
2018-10-03T07:12:17.123Z,9.86
2018-10-03T07:13:17.075Z,9.86
2018-10-03T07:14:17.123Z,9.89
2018-10-03T07:15:17.269Z,9.86
2018-10-03T07:16:17.170Z,9.9
2018-10-03T07:17:17.025Z,9.87
2018-10-03T07:18:17.055Z,9.91
2018-10-03T07:19:16.983Z,9.88
2018-10-03T07:20:17.643Z,9.85
2018-10-03T07:21:24.310Z,9.91
2018-10-03T07:22:17.072Z,9.85
2018-10-03T07:23:17.016Z,9.87
2018-10-03T07:24:17.256Z,9.86
2018-10-03T07:25:16.973Z,9.87
2018-10-03T07:26:17.544Z,9.87
2018-10-03T07:27:17.081Z,9.86
2018-10-03T07:28:17.131Z,9.93
2018-10-03T07:29:17.141Z,9.87
2018-10-03T07:30:17.065Z,9.87
2018-10-03T07:31:17.153Z,9.93
2018-10-03T07:32:17.016Z,9.97
2018-10-03T07:33:17.074Z,9.93
2018-10-03T07:34:17.002Z,9.93
2018-10-03T07:35:16.984Z,9.96
2018-10-03T07:36:16.967Z,9.93
2018-10-03T07:37:16.947Z,10
2018-10-03T07:38:17.040Z,9.97
2018-10-03T07:39:17.086Z,9.98
2018-10-03T07:40:17.168Z,9.97
2018-10-03T07:41:17.033Z,9.96
2018-10-03T07:42:17.802Z,9.98
2018-10-03T07:43:17.189Z,9.96
2018-10-03T07:44:17.647Z,9.98
2018-10-03T07:45:17.298Z,10
2018-10-03T07:46:17.007Z,10.02
2018-10-03T07:47:17.362Z,10.03
2018-10-03T07:48:17.298Z,10.07
2018-10-03T07:49:17.051Z,10.07
2018-10-03T07:50:17.080Z,10.1
2018-10-03T07:51:16.966Z,10.03
2018-10-03T07:52:16.988Z,10.1
2018-10-03T07:53:17.116Z,10.11
2018-10-03T07:54:17.235Z,10.1
2018-10-03T07:55:17.298Z,10.1
2018-10-03T07:56:17.660Z,10.16
2018-10-03T07:57:17.063Z,10.18
2018-10-03T07:58:17.081Z,10.23
2018-10-03T07:59:17.096Z,10.12
2018-10-03T08:00:17.082Z,10.18
2018-10-03T08:01:17.031Z,10.15
2018-10-03T08:02:16.969Z,10.23
2018-10-03T08:03:16.893Z,10.24
2018-10-03T08:04:16.913Z,10.18
2018-10-03T08:05:17.151Z,10.16
2018-10-03T08:06:17.115Z,10.19
2018-10-03T08:07:16.880Z,10.23
2018-10-03T08:08:17.080Z,10.23
2018-10-03T08:09:17.048Z,10.2
2018-10-03T08:10:16.899Z,10.2
2018-10-03T08:11:16.952Z,10.21
2018-10-03T08:12:16.918Z,10.21
2018-10-03T08:13:17.137Z,10.29
2018-10-03T08:14:17.015Z,10.29
2018-10-03T08:15:16.945Z,10.28
2018-10-03T08:16:16.919Z,10.26
2018-10-03T08:17:17.352Z,10.32
2018-10-03T08:18:17.138Z,10.36
2018-10-03T08:19:17.148Z,10.37
2018-10-03T08:20:16.896Z,10.41
2018-10-03T08:21:16.855Z,10.36
2018-10-03T08:22:16.975Z,10.36
2018-10-03T08:23:16.924Z,10.37
2018-10-03T08:24:16.925Z,10.41
2018-10-03T08:25:17.174Z,10.45
2018-10-03T08:26:16.905Z,10.44
2018-10-03T08:27:17.095Z,10.41
2018-10-03T08:28:17.075Z,10.39
2018-10-03T08:29:16.910Z,10.46
2018-10-03T08:30:16.878Z,10.45
2018-10-03T08:31:17.269Z,10.45
2018-10-03T08:32:17.486Z,10.45
2018-10-03T08:33:17.395Z,10.49
2018-10-03T08:34:16.930Z,10.44
2018-10-03T08:35:16.919Z,10.45
2018-10-03T08:36:16.868Z,10.44
2018-10-03T08:37:17.011Z,10.48
2018-10-03T08:38:16.988Z,10.6
2018-10-03T08:39:17.059Z,10.59
2018-10-03T08:40:17.113Z,10.55
2018-10-03T08:41:17.356Z,10.53
2018-10-03T08:42:17.072Z,10.63
2018-10-03T08:43:16.892Z,10.68
2018-10-03T08:44:16.964Z,10.63
2018-10-03T08:45:16.907Z,10.65
2018-10-03T08:46:17.119Z,10.66
2018-10-03T08:47:17.012Z,10.74
2018-10-03T08:48:17.072Z,10.68
2018-10-03T08:49:17.139Z,10.79
2018-10-03T08:50:17.135Z,10.78
2018-10-03T08:51:17.050Z,10.76
2018-10-03T08:52:17.111Z,10.73
2018-10-03T08:53:16.872Z,10.81
2018-10-03T08:54:17.533Z,10.66
2018-10-03T08:55:16.834Z,10.73
2018-10-03T08:56:16.884Z,10.71
2018-10-03T08:57:17.017Z,10.73
2018-10-03T08:58:17.659Z,10.79
2018-10-03T08:59:16.842Z,10.85
2018-10-03T09:00:17.022Z,10.88
2018-10-03T09:01:16.830Z,10.9
2018-10-03T09:02:17.031Z,10.9
2018-10-03T09:03:16.828Z,10.93
2018-10-03T09:04:16.855Z,11.05
2018-10-03T09:05:16.912Z,11.09
2018-10-03T09:06:17.026Z,10.99
2018-10-03T09:07:16.914Z,10.98
2018-10-03T09:08:16.880Z,10.94
2018-10-03T09:09:16.847Z,10.91
2018-10-03T09:10:17.043Z,10.86
2018-10-03T09:11:16.872Z,10.85
2018-10-03T09:12:16.823Z,10.79
2018-10-03T09:13:16.812Z,10.84
2018-10-03T09:14:17.060Z,10.83
2018-10-03T09:15:17.083Z,10.83
2018-10-03T09:16:16.921Z,10.82
2018-10-03T09:17:16.911Z,10.74
2018-10-03T09:18:17.080Z,10.77
2018-10-03T09:19:17.148Z,10.87
2018-10-03T09:20:16.836Z,10.87
2018-10-03T09:21:17.279Z,10.96
2018-10-03T09:22:16.823Z,10.89
2018-10-03T09:23:16.800Z,10.91
2018-10-03T09:24:16.962Z,10.92
2018-10-03T09:25:17.039Z,10.93
2018-10-03T09:26:17.066Z,10.91
2018-10-03T09:27:16.856Z,10.91
2018-10-03T09:28:17.148Z,10.93
2018-10-03T09:29:16.882Z,10.84
2018-10-03T09:30:16.778Z,10.81
2018-10-03T09:31:16.907Z,10.79
2018-10-03T09:32:16.883Z,10.78
2018-10-03T09:33:16.765Z,10.84
2018-10-03T09:34:16.891Z,10.85
2018-10-03T09:35:17.087Z,10.8
2018-10-03T09:36:17.017Z,10.84
2018-10-03T09:37:16.767Z,10.82
2018-10-03T09:38:16.810Z,10.82
2018-10-03T09:39:16.778Z,10.85
2018-10-03T09:40:16.839Z,10.85
2018-10-03T09:41:19.126Z,10.84
2018-10-03T09:43:18.161Z,10.86
2018-10-03T09:44:16.917Z,10.84
2018-10-03T09:45:16.835Z,10.85
2018-10-03T09:46:16.756Z,10.82
2018-10-03T09:47:16.801Z,10.86
2018-10-03T09:49:16.400Z,10.78
2018-10-03T09:50:16.785Z,10.85
2018-10-03T09:51:16.799Z,10.86
2018-10-03T09:52:17.013Z,10.99
2018-10-03T09:53:17.049Z,10.88
2018-10-03T09:54:16.902Z,10.89
2018-10-03T09:55:16.785Z,10.99
2018-10-03T09:56:16.943Z,11.04
2018-10-03T09:57:16.936Z,11.04
2018-10-03T09:58:16.783Z,10.93
2018-10-03T09:59:16.742Z,10.89
2018-10-03T10:00:17.141Z,10.93
2018-10-03T10:01:16.851Z,11
2018-10-03T10:02:16.781Z,11.02
2018-10-03T10:03:16.872Z,11.01
2018-10-03T10:04:18.008Z,11.03
2018-10-03T10:05:16.808Z,10.97
2018-10-03T10:06:16.833Z,11
2018-10-03T10:07:16.734Z,11.01
2018-10-03T10:08:16.949Z,11.03
2018-10-03T10:09:16.908Z,11.01
2018-10-03T10:10:17.412Z,10.92
2018-10-03T10:11:17.829Z,10.87
2018-10-03T10:12:17.112Z,10.79
2018-10-03T10:13:16.827Z,10.78
2018-10-03T10:14:17.097Z,10.84
2018-10-03T10:15:16.837Z,10.89
2018-10-03T10:16:16.774Z,10.92
2018-10-03T10:17:16.723Z,10.98
2018-10-03T10:18:16.779Z,10.92
2018-10-03T10:19:16.820Z,10.85
2018-10-03T10:20:16.875Z,10.88
2018-10-03T10:21:16.849Z,10.9
2018-10-03T10:22:16.814Z,10.94
2018-10-03T10:23:17.028Z,10.96
2018-10-03T10:24:16.712Z,10.83
2018-10-03T10:25:16.732Z,10.89
2018-10-03T10:26:16.707Z,10.86
2018-10-03T10:27:16.849Z,10.9
2018-10-03T10:28:16.728Z,10.86
2018-10-03T10:29:16.729Z,10.86
2018-10-03T10:30:17.092Z,10.89
2018-10-03T10:31:16.776Z,10.99
2018-10-03T10:32:17.658Z,11.06
2018-10-03T10:33:16.750Z,10.95
2018-10-03T10:34:17.071Z,10.98
2018-10-03T10:35:16.707Z,10.96
2018-10-03T10:36:16.811Z,10.76
2018-10-03T10:37:16.707Z,10.72
2018-10-03T10:38:17.123Z,10.66
2018-10-03T10:39:16.720Z,10.77
2018-10-03T10:40:18.006Z,10.86
2018-10-03T10:41:17.989Z,10.88
2018-10-03T10:42:16.753Z,10.83
2018-10-03T10:43:17.232Z,10.84
2018-10-03T10:44:17.044Z,10.83
2018-10-03T10:45:16.957Z,10.87
2018-10-03T10:46:16.851Z,10.95
2018-10-03T10:47:16.919Z,10.96
2018-10-03T10:48:16.927Z,10.74
2018-10-03T10:49:16.665Z,10.75
2018-10-03T10:50:17.489Z,10.77
2018-10-03T10:51:16.937Z,10.78
2018-10-03T10:52:16.797Z,10.83
2018-10-03T10:53:17.032Z,10.85
2018-10-03T10:54:16.906Z,10.77
2018-10-03T10:55:16.971Z,10.83
2018-10-03T10:56:16.925Z,10.9
2018-10-03T10:57:16.931Z,10.9
2018-10-03T10:58:16.727Z,10.97
2018-10-03T10:59:16.901Z,10.98
2018-10-03T11:00:17.030Z,11.01
2018-10-03T11:01:17.292Z,10.95
2018-10-03T11:02:16.866Z,11
2018-10-03T11:03:16.864Z,11.01
2018-10-03T11:04:16.889Z,10.98
2018-10-03T11:05:16.892Z,11.05
2018-10-03T11:06:17.314Z,10.97
2018-10-03T11:07:16.811Z,10.97
2018-10-03T11:08:16.763Z,10.99
2018-10-03T11:09:16.817Z,11.04
2018-10-03T11:10:16.826Z,11.07
2018-10-03T11:11:16.833Z,10.99
2018-10-03T11:12:18.049Z,10.89
2018-10-03T11:13:17.710Z,10.99
2018-10-03T11:14:16.659Z,10.99
2018-10-03T11:15:16.683Z,10.93
2018-10-03T11:16:16.689Z,10.93
2018-10-03T11:17:16.704Z,10.95
2018-10-03T11:18:16.642Z,10.99
2018-10-03T11:19:16.676Z,10.99
2018-10-03T11:20:16.776Z,11.17
2018-10-03T11:21:16.661Z,11.22
2018-10-03T11:22:16.718Z,11.25
2018-10-03T11:23:16.911Z,11.28
2018-10-03T11:24:17.691Z,11.25
2018-10-03T11:25:16.841Z,11.17
2018-10-03T11:26:16.816Z,11.16
2018-10-03T11:27:16.773Z,11.25
2018-10-03T11:28:16.787Z,11.2
2018-10-03T11:29:16.302Z,11.25
2018-10-03T11:30:16.664Z,11.23
2018-10-03T11:31:16.653Z,11.17
2018-10-03T11:32:17.604Z,11.1
2018-10-03T11:33:16.764Z,11.16
2018-10-03T11:34:16.643Z,11.19
2018-10-03T11:35:16.825Z,11.27
2018-10-03T11:36:16.669Z,11.19
2018-10-03T11:37:16.829Z,11.22
2018-10-03T11:38:17.126Z,11.24
2018-10-03T11:39:16.940Z,11.2
2018-10-03T11:40:16.902Z,11.26
2018-10-03T11:41:16.624Z,11.2
2018-10-03T11:42:16.742Z,11.16
2018-10-03T11:43:16.617Z,11.23
2018-10-03T11:44:16.777Z,11.22
2018-10-03T11:45:16.639Z,11.23
2018-10-03T11:46:16.609Z,11.1
2018-10-03T11:47:16.730Z,11.15
2018-10-03T11:48:16.726Z,11.24
2018-10-03T11:49:16.601Z,11.23
2018-10-03T11:50:16.688Z,11.18
2018-10-03T11:51:16.806Z,11.19
2018-10-03T11:52:16.808Z,11.23
2018-10-03T11:53:16.606Z,11.23
2018-10-03T11:54:16.620Z,11.29
2018-10-03T11:55:16.590Z,11.24
2018-10-03T11:56:16.878Z,11.19
2018-10-03T11:57:16.693Z,11.17
2018-10-03T11:58:16.642Z,11.17
2018-10-03T11:59:16.725Z,11.16
2018-10-03T12:00:16.658Z,11.18
2018-10-03T12:01:16.756Z,11.17
2018-10-03T12:02:16.878Z,11.22
2018-10-03T12:03:17.537Z,11.27
2018-10-03T12:04:16.796Z,11.15
2018-10-03T12:05:16.612Z,11.14
2018-10-03T12:06:16.608Z,11.23
2018-10-03T12:07:16.622Z,11.14
2018-10-03T12:08:17.424Z,11.23
2018-10-03T12:09:17.097Z,11.3
2018-10-03T12:10:16.838Z,11.23
2018-10-03T12:11:16.687Z,11.21
2018-10-03T12:12:16.630Z,11.16
2018-10-03T12:13:16.738Z,11.05
2018-10-03T12:14:16.644Z,11.13
2018-10-03T12:15:16.724Z,11.19
2018-10-03T12:16:16.593Z,11.07
2018-10-03T12:17:16.735Z,11.04
2018-10-03T12:18:16.599Z,11.04
2018-10-03T12:19:16.753Z,11.2
2018-10-03T12:20:16.706Z,11.26
2018-10-03T12:21:16.809Z,11.27
2018-10-03T12:22:16.567Z,11.32
2018-10-03T12:23:16.643Z,11.3
2018-10-03T12:24:16.727Z,11.38
2018-10-03T12:25:17.263Z,11.34
2018-10-03T12:26:16.561Z,11.33
2018-10-03T12:27:16.577Z,11.34
2018-10-03T12:28:16.557Z,11.3
2018-10-03T12:29:16.749Z,11.24
2018-10-03T12:30:16.972Z,11.27
2018-10-03T12:31:20.963Z,11.18
2018-10-03T12:32:16.371Z,11.15
2018-10-03T12:33:16.991Z,11.18
2018-10-03T12:34:16.564Z,11.17
2018-10-03T12:35:16.725Z,11.23
2018-10-03T12:36:16.580Z,11.28
2018-10-03T12:37:16.554Z,11.24
2018-10-03T12:38:16.540Z,11.21
2018-10-03T12:39:16.533Z,11.24
2018-10-03T12:40:16.745Z,11.21
2018-10-03T12:41:16.718Z,11.18
2018-10-03T12:42:16.730Z,11.06
2018-10-03T12:43:16.729Z,11.1
2018-10-03T12:44:16.836Z,11.19
2018-10-03T12:45:16.772Z,11.1
2018-10-03T12:46:16.699Z,11.01
2018-10-03T12:47:16.631Z,11.04
2018-10-03T12:48:16.674Z,11.13
2018-10-03T12:49:16.560Z,11.11
2018-10-03T12:50:16.566Z,11.09
2018-10-03T12:51:16.804Z,11.11
2018-10-03T12:52:16.610Z,11.19
2018-10-03T12:53:16.527Z,11.28
2018-10-03T12:54:16.593Z,11.21
2018-10-03T12:55:16.608Z,11.24
2018-10-03T12:56:16.662Z,10.99
2018-10-03T12:57:16.650Z,10.93
2018-10-03T12:58:16.636Z,10.98
2018-10-03T12:59:16.780Z,11.02
2018-10-03T13:00:16.740Z,11.01
2018-10-03T13:01:17.408Z,10.89
2018-10-03T13:02:16.651Z,10.84
2018-10-03T13:03:16.688Z,10.93
2018-10-03T13:04:16.689Z,10.85
2018-10-03T13:05:16.696Z,10.88
2018-10-03T13:06:16.691Z,10.85
2018-10-03T13:07:16.661Z,10.82
2018-10-03T13:08:16.860Z,10.59
2018-10-03T13:09:16.581Z,10.71
2018-10-03T13:10:16.887Z,10.79
2018-10-03T13:11:16.663Z,10.8
2018-10-03T13:12:16.674Z,10.87
2018-10-03T13:13:16.662Z,10.77
2018-10-03T13:14:16.555Z,10.73
2018-10-03T13:15:16.768Z,10.7